NSZ51M ESSA-EGKK
Flight info
| Callsign | NSZ51M |
|---|---|
| Flight time | N/A |
| Altitude | 36000 |
| Route | ARS N623 BEDLA N866 LAPSI DCT INVOL N866 DETNA DCT ETVOK DCT KEMEG/N0456F380 DCT RERPA DCT UPGAS DCT TIPAN DCT WECOW DCT BINBO DCT AKOKO N866 BUKUT P7 BARMI |
| Aircraft | B738/M-SDE2E3FGHIRWXY/LB1 |
Departure
| Time | N/A |
|---|---|
| Airport | Stockholm-Arlanda Airport (ESSA) |
Arrival
| Time | 2026-05-04 19:48 |
|---|---|
| Airport | London Gatwick Airport (EGKK) |
| Time | Latitude | Longitude | Altitude | Speed | Heading |
|---|---|---|---|---|---|
| 2026-05-04 17:51 | 58.73976 | 14.50449 | 35760 ft | 403 kts | 242° |
| 2026-05-04 17:51 | 58.72548 | 14.45816 | 35769 ft | 403 kts | 242° |
| 2026-05-04 17:52 | 58.69684 | 14.36557 | 35776 ft | 402 kts | 242° |
| 2026-05-04 17:52 | 58.66811 | 14.27302 | 35775 ft | 404 kts | 242° |
| 2026-05-04 17:53 | 58.63918 | 14.18023 | 35780 ft | 405 kts | 242° |
| 2026-05-04 17:53 | 58.61009 | 14.08728 | 35778 ft | 407 kts | 242° |
| 2026-05-04 17:54 | 58.58577 | 14.00987 | 35784 ft | 408 kts | 242° |
| 2026-05-04 17:54 | 58.55635 | 13.91658 | 35740 ft | 410 kts | 242° |
| 2026-05-04 17:55 | 58.52680 | 13.82321 | 35795 ft | 410 kts | 242° |
| 2026-05-04 17:55 | 58.49708 | 13.72971 | 35801 ft | 412 kts | 242° |
| 2026-05-04 17:56 | 58.46724 | 13.63624 | 35797 ft | 412 kts | 242° |
| 2026-05-04 17:56 | 58.43750 | 13.54341 | 35799 ft | 412 kts | 242° |
| 2026-05-04 17:57 | 58.40751 | 13.45017 | 35806 ft | 412 kts | 242° |
| 2026-05-04 17:57 | 58.37751 | 13.35726 | 35804 ft | 411 kts | 242° |
| 2026-05-04 17:58 | 58.34746 | 13.26459 | 35808 ft | 411 kts | 242° |
| 2026-05-04 17:58 | 58.31740 | 13.17221 | 35816 ft | 409 kts | 241° |
| 2026-05-04 17:59 | 58.28737 | 13.08029 | 35833 ft | 409 kts | 241° |
| 2026-05-04 18:00 | 58.24215 | 12.94258 | 35819 ft | 409 kts | 241° |
| 2026-05-04 18:00 | 58.21198 | 12.85111 | 35825 ft | 409 kts | 241° |
| 2026-05-04 18:01 | 58.18190 | 12.76030 | 35826 ft | 409 kts | 241° |
| 2026-05-04 18:01 | 58.15153 | 12.66893 | 35830 ft | 410 kts | 241° |
| 2026-05-04 18:02 | 58.10577 | 12.53194 | 35829 ft | 411 kts | 241° |
| 2026-05-04 18:02 | 58.07511 | 12.44063 | 35834 ft | 411 kts | 241° |
| 2026-05-04 18:03 | 58.04442 | 12.34955 | 35837 ft | 411 kts | 241° |
| 2026-05-04 18:03 | 58.01364 | 12.25856 | 35848 ft | 411 kts | 241° |
| 2026-05-04 18:04 | 57.98276 | 12.16761 | 35863 ft | 412 kts | 241° |
| 2026-05-04 18:05 | 57.93634 | 12.03156 | 35874 ft | 411 kts | 241° |
| 2026-05-04 18:05 | 57.90560 | 11.94188 | 35847 ft | 411 kts | 240° |
| 2026-05-04 18:06 | 57.85904 | 11.80670 | 35888 ft | 411 kts | 240° |
| 2026-05-04 18:06 | 57.82789 | 11.71667 | 35886 ft | 412 kts | 240° |
| 2026-05-04 18:07 | 57.79658 | 11.62652 | 35883 ft | 413 kts | 240° |
| 2026-05-04 18:07 | 57.76517 | 11.53643 | 35882 ft | 413 kts | 240° |
| 2026-05-04 18:08 | 57.73372 | 11.44610 | 35881 ft | 414 kts | 241° |
| 2026-05-04 18:08 | 57.70292 | 11.35505 | 35878 ft | 414 kts | 241° |
| 2026-05-04 18:09 | 57.64149 | 11.17325 | 35891 ft | 414 kts | 240° |
| 2026-05-04 18:10 | 57.61066 | 11.08284 | 35888 ft | 415 kts | 240° |
| 2026-05-04 18:10 | 57.57954 | 10.99202 | 35897 ft | 416 kts | 240° |
| 2026-05-04 18:11 | 57.54832 | 10.90128 | 35901 ft | 416 kts | 240° |
| 2026-05-04 18:11 | 57.51699 | 10.81054 | 35901 ft | 416 kts | 240° |
| 2026-05-04 18:12 | 57.48562 | 10.72006 | 35895 ft | 416 kts | 240° |
| 2026-05-04 18:12 | 57.45422 | 10.62980 | 36073 ft | 421 kts | 240° |
| 2026-05-04 18:13 | 57.43833 | 10.58426 | 36325 ft | 420 kts | 240° |
| 2026-05-04 18:13 | 57.42243 | 10.53881 | 36605 ft | 419 kts | 240° |
| 2026-05-04 18:13 | 57.39061 | 10.44803 | 37003 ft | 420 kts | 240° |
| 2026-05-04 18:14 | 57.37467 | 10.40270 | 37250 ft | 420 kts | 240° |
| 2026-05-04 18:14 | 57.35870 | 10.35737 | 37498 ft | 419 kts | 240° |
| 2026-05-04 18:14 | 57.34275 | 10.31217 | 37695 ft | 419 kts | 240° |
| 2026-05-04 18:15 | 57.31072 | 10.22166 | 37909 ft | 422 kts | 240° |
| 2026-05-04 18:15 | 57.27844 | 10.13077 | 37949 ft | 421 kts | 240° |
| 2026-05-04 18:16 | 57.24656 | 10.04141 | 37888 ft | 417 kts | 239° |
| 2026-05-04 18:16 | 57.21477 | 9.95264 | 37922 ft | 413 kts | 239° |
| 2026-05-04 18:17 | 57.16670 | 9.81888 | 37952 ft | 422 kts | 239° |
| 2026-05-04 18:18 | 57.11754 | 9.68289 | 37946 ft | 427 kts | 239° |
| 2026-05-04 18:18 | 57.08452 | 9.59203 | 37940 ft | 428 kts | 239° |
| 2026-05-04 18:19 | 57.03481 | 9.45587 | 37962 ft | 427 kts | 239° |
| 2026-05-04 18:19 | 57.00191 | 9.36617 | 37957 ft | 425 kts | 239° |
| 2026-05-04 18:20 | 56.96860 | 9.27569 | 37955 ft | 425 kts | 239° |
| 2026-05-04 18:20 | 56.93566 | 9.18653 | 37953 ft | 425 kts | 238° |
| 2026-05-04 18:21 | 56.90251 | 9.09714 | 37965 ft | 424 kts | 238° |
| 2026-05-04 18:21 | 56.86926 | 9.00780 | 37964 ft | 424 kts | 238° |
| 2026-05-04 18:22 | 56.83600 | 8.91877 | 37973 ft | 424 kts | 238° |
| 2026-05-04 18:22 | 56.80272 | 8.83003 | 37972 ft | 423 kts | 238° |
| 2026-05-04 18:23 | 56.76961 | 8.74205 | 37967 ft | 423 kts | 238° |
| 2026-05-04 18:23 | 56.73625 | 8.65373 | 37981 ft | 423 kts | 238° |
| 2026-05-04 18:24 | 56.70281 | 8.56551 | 37976 ft | 424 kts | 238° |
| 2026-05-04 18:24 | 56.66921 | 8.47720 | 37979 ft | 425 kts | 238° |
| 2026-05-04 18:25 | 56.63547 | 8.38884 | 37983 ft | 425 kts | 238° |
| 2026-05-04 18:25 | 56.60163 | 8.30054 | 37986 ft | 426 kts | 238° |
| 2026-05-04 18:26 | 56.56765 | 8.21219 | 37969 ft | 427 kts | 237° |
| 2026-05-04 18:26 | 56.53362 | 8.12409 | 37989 ft | 427 kts | 237° |
| 2026-05-04 18:27 | 56.49945 | 8.03587 | 37989 ft | 428 kts | 237° |
| 2026-05-04 18:27 | 56.46517 | 7.94772 | 37995 ft | 429 kts | 237° |
| 2026-05-04 18:28 | 56.43100 | 7.86017 | 37995 ft | 429 kts | 237° |
| 2026-05-04 18:28 | 56.39653 | 7.77216 | 37994 ft | 429 kts | 237° |
| 2026-05-04 18:29 | 56.36195 | 7.68419 | 38000 ft | 430 kts | 237° |
| 2026-05-04 18:29 | 56.32729 | 7.59635 | 37987 ft | 429 kts | 236° |
| 2026-05-04 18:30 | 56.27534 | 7.46528 | 38003 ft | 429 kts | 236° |
| 2026-05-04 18:31 | 56.24055 | 7.37787 | 38001 ft | 429 kts | 236° |
| 2026-05-04 18:31 | 56.20572 | 7.29069 | 38006 ft | 429 kts | 236° |
| 2026-05-04 18:32 | 56.17084 | 7.20371 | 38006 ft | 429 kts | 236° |
| 2026-05-04 18:32 | 56.13611 | 7.11739 | 38005 ft | 429 kts | 236° |
| 2026-05-04 18:33 | 56.10111 | 7.03072 | 37991 ft | 429 kts | 236° |
| 2026-05-04 18:33 | 56.06604 | 6.94416 | 38006 ft | 429 kts | 235° |
| 2026-05-04 18:34 | 56.03092 | 6.85782 | 38011 ft | 429 kts | 235° |
| 2026-05-04 18:34 | 55.99574 | 6.77163 | 38006 ft | 429 kts | 235° |
| 2026-05-04 18:35 | 55.96047 | 6.68551 | 38017 ft | 429 kts | 235° |
| 2026-05-04 18:35 | 55.92516 | 6.59959 | 38018 ft | 429 kts | 235° |
| 2026-05-04 18:36 | 55.88976 | 6.51377 | 38018 ft | 430 kts | 235° |
| 2026-05-04 18:36 | 55.85449 | 6.42854 | 38016 ft | 430 kts | 235° |
| 2026-05-04 18:37 | 55.81887 | 6.34280 | 38020 ft | 430 kts | 235° |
| 2026-05-04 18:37 | 55.78325 | 6.25733 | 38026 ft | 430 kts | 235° |
| 2026-05-04 18:38 | 55.74755 | 6.17197 | 38027 ft | 431 kts | 235° |
| 2026-05-04 18:38 | 55.71172 | 6.08659 | 38024 ft | 431 kts | 235° |
| 2026-05-04 18:39 | 55.67584 | 6.00141 | 38024 ft | 431 kts | 235° |
| 2026-05-04 18:39 | 55.63988 | 5.91634 | 38002 ft | 431 kts | 234° |
| 2026-05-04 18:40 | 55.61000 | 5.84582 | 38023 ft | 431 kts | 234° |
| 2026-05-04 18:40 | 55.56807 | 5.74731 | 38026 ft | 431 kts | 234° |
| 2026-05-04 18:41 | 55.53195 | 5.66272 | 38030 ft | 431 kts | 234° |
| 2026-05-04 18:41 | 55.49573 | 5.57821 | 38028 ft | 432 kts | 234° |
| 2026-05-04 18:42 | 55.46555 | 5.50798 | 38029 ft | 432 kts | 234° |
| 2026-05-04 18:42 | 55.42916 | 5.42360 | 38037 ft | 432 kts | 234° |
| 2026-05-04 18:43 | 55.39270 | 5.33933 | 38023 ft | 432 kts | 234° |
| 2026-05-04 18:43 | 55.35640 | 5.25570 | 38034 ft | 432 kts | 233° |
| 2026-05-04 18:44 | 55.31985 | 5.17179 | 38036 ft | 432 kts | 233° |
| 2026-05-04 18:44 | 55.28324 | 5.08797 | 38036 ft | 433 kts | 233° |
| 2026-05-04 18:45 | 55.24377 | 5.00825 | 38041 ft | 434 kts | 222° |
| 2026-05-04 18:45 | 55.19345 | 4.94960 | 38054 ft | 437 kts | 210° |
| 2026-05-04 18:46 | 55.13966 | 4.89995 | 38031 ft | 437 kts | 210° |
| 2026-05-04 18:46 | 55.08578 | 4.85017 | 38040 ft | 438 kts | 210° |
| 2026-05-04 18:47 | 55.03210 | 4.80010 | 38046 ft | 438 kts | 210° |
| 2026-05-04 18:47 | 54.97876 | 4.75025 | 38047 ft | 438 kts | 210° |
| 2026-05-04 18:48 | 54.92500 | 4.70013 | 38049 ft | 438 kts | 210° |
| 2026-05-04 18:48 | 54.87117 | 4.65011 | 38054 ft | 438 kts | 210° |
| 2026-05-04 18:49 | 54.81733 | 4.60024 | 38041 ft | 439 kts | 210° |
| 2026-05-04 18:49 | 54.76338 | 4.55043 | 38050 ft | 439 kts | 210° |
| 2026-05-04 18:50 | 54.70944 | 4.50076 | 38039 ft | 439 kts | 210° |
| 2026-05-04 18:50 | 54.65540 | 4.45115 | 38043 ft | 439 kts | 210° |
| 2026-05-04 18:51 | 54.60135 | 4.40169 | 38047 ft | 439 kts | 210° |
| 2026-05-04 18:51 | 54.54763 | 4.35273 | 38049 ft | 439 kts | 210° |
| 2026-05-04 18:52 | 54.49360 | 4.30365 | 38048 ft | 439 kts | 210° |
| 2026-05-04 18:52 | 54.43951 | 4.25462 | 38050 ft | 439 kts | 209° |
| 2026-05-04 18:53 | 54.38542 | 4.20575 | 38044 ft | 439 kts | 209° |
| 2026-05-04 18:53 | 54.33128 | 4.15697 | 38047 ft | 439 kts | 209° |
| 2026-05-04 18:54 | 54.27712 | 4.10832 | 38045 ft | 439 kts | 209° |
| 2026-05-04 18:54 | 54.22293 | 4.05978 | 38053 ft | 439 kts | 209° |
| 2026-05-04 18:55 | 54.16874 | 4.01138 | 38042 ft | 439 kts | 209° |
| 2026-05-04 18:55 | 54.08777 | 3.93934 | 38048 ft | 439 kts | 209° |
| 2026-05-04 18:56 | 54.03355 | 3.89125 | 38050 ft | 439 kts | 209° |
| 2026-05-04 18:56 | 53.97937 | 3.84336 | 38046 ft | 439 kts | 209° |
| 2026-05-04 18:57 | 53.92518 | 3.79566 | 38046 ft | 438 kts | 208° |
| 2026-05-04 18:57 | 53.87097 | 3.74807 | 38050 ft | 438 kts | 208° |
| 2026-05-04 18:58 | 53.81688 | 3.70070 | 38048 ft | 437 kts | 208° |
| 2026-05-04 18:58 | 53.76279 | 3.65346 | 38048 ft | 437 kts | 208° |
| 2026-05-04 18:59 | 53.70876 | 3.60640 | 38049 ft | 437 kts | 208° |
| 2026-05-04 18:59 | 53.65502 | 3.55973 | 38051 ft | 437 kts | 208° |
| 2026-05-04 19:00 | 53.60091 | 3.51289 | 38050 ft | 437 kts | 208° |
| 2026-05-04 19:00 | 53.54674 | 3.46611 | 38051 ft | 437 kts | 208° |
| 2026-05-04 19:01 | 53.49258 | 3.41948 | 38046 ft | 437 kts | 208° |
| 2026-05-04 19:01 | 53.43839 | 3.37294 | 38047 ft | 437 kts | 208° |
| 2026-05-04 19:02 | 53.38416 | 3.32653 | 38043 ft | 437 kts | 208° |
| 2026-05-04 19:02 | 53.32990 | 3.28025 | 38029 ft | 438 kts | 208° |
| 2026-05-04 19:03 | 53.30267 | 3.25705 | 37740 ft | 441 kts | 208° |
| 2026-05-04 19:03 | 53.27530 | 3.23377 | 37475 ft | 438 kts | 208° |
| 2026-05-04 19:03 | 53.24823 | 3.21079 | 37203 ft | 436 kts | 208° |
| 2026-05-04 19:03 | 53.22119 | 3.18787 | 36940 ft | 436 kts | 208° |
| 2026-05-04 19:04 | 53.19416 | 3.16499 | 36683 ft | 436 kts | 208° |
| 2026-05-04 19:04 | 53.16712 | 3.14212 | 36426 ft | 435 kts | 208° |
| 2026-05-04 19:04 | 53.14011 | 3.11932 | 36173 ft | 435 kts | 208° |
| 2026-05-04 19:04 | 53.11346 | 3.09686 | 35925 ft | 434 kts | 208° |
| 2026-05-04 19:05 | 53.08649 | 3.07417 | 35676 ft | 434 kts | 208° |
| 2026-05-04 19:05 | 53.05956 | 3.05154 | 35430 ft | 433 kts | 208° |
| 2026-05-04 19:05 | 53.03269 | 3.02898 | 35199 ft | 433 kts | 208° |
| 2026-05-04 19:05 | 53.00593 | 3.00654 | 34731 ft | 428 kts | 208° |
| 2026-05-04 19:06 | 52.97931 | 2.98424 | 34128 ft | 428 kts | 208° |
| 2026-05-04 19:06 | 52.95282 | 2.96210 | 33738 ft | 421 kts | 208° |
| 2026-05-04 19:06 | 52.92689 | 2.94047 | 33287 ft | 415 kts | 208° |
| 2026-05-04 19:06 | 52.90115 | 2.91902 | 32732 ft | 412 kts | 208° |
| 2026-05-04 19:07 | 52.87572 | 2.89786 | 32235 ft | 406 kts | 208° |
| 2026-05-04 19:07 | 52.85060 | 2.87697 | 31746 ft | 401 kts | 208° |
| 2026-05-04 19:07 | 52.82615 | 2.85666 | 31252 ft | 397 kts | 208° |
| 2026-05-04 19:07 | 52.80118 | 2.83593 | 30783 ft | 395 kts | 207° |
| 2026-05-04 19:08 | 52.77665 | 2.81560 | 30315 ft | 395 kts | 207° |
| 2026-05-04 19:08 | 52.75246 | 2.79559 | 29810 ft | 392 kts | 207° |
| 2026-05-04 19:08 | 52.72811 | 2.77549 | 29263 ft | 389 kts | 207° |
| 2026-05-04 19:08 | 52.70398 | 2.75560 | 28722 ft | 386 kts | 207° |
| 2026-05-04 19:09 | 52.68000 | 2.73586 | 28198 ft | 384 kts | 208° |
| 2026-05-04 19:09 | 52.65618 | 2.71626 | 27685 ft | 381 kts | 208° |
| 2026-05-04 19:09 | 52.63250 | 2.69679 | 27197 ft | 380 kts | 208° |
| 2026-05-04 19:09 | 52.60864 | 2.67718 | 26387 ft | 385 kts | 208° |
| 2026-05-04 19:10 | 52.58467 | 2.65751 | 25858 ft | 383 kts | 208° |
| 2026-05-04 19:10 | 52.56137 | 2.63845 | 25956 ft | 365 kts | 208° |
| 2026-05-04 19:10 | 52.53863 | 2.61982 | 26000 ft | 370 kts | 208° |
| 2026-05-04 19:10 | 52.51525 | 2.60067 | 26035 ft | 383 kts | 208° |
| 2026-05-04 19:11 | 52.49105 | 2.58089 | 26041 ft | 393 kts | 207° |
| 2026-05-04 19:11 | 52.46638 | 2.56079 | 26024 ft | 395 kts | 207° |
| 2026-05-04 19:11 | 52.44189 | 2.54089 | 26027 ft | 392 kts | 207° |
| 2026-05-04 19:11 | 52.41759 | 2.52116 | 25997 ft | 386 kts | 207° |
| 2026-05-04 19:12 | 52.39376 | 2.50184 | 25601 ft | 380 kts | 208° |
| 2026-05-04 19:12 | 52.34657 | 2.46360 | 24635 ft | 375 kts | 208° |
| 2026-05-04 19:12 | 52.32333 | 2.44479 | 24179 ft | 372 kts | 208° |
| 2026-05-04 19:13 | 52.30048 | 2.42631 | 23714 ft | 370 kts | 208° |
| 2026-05-04 19:13 | 52.27748 | 2.40774 | 23169 ft | 368 kts | 208° |
| 2026-05-04 19:13 | 52.25457 | 2.38925 | 22633 ft | 366 kts | 207° |
| 2026-05-04 19:13 | 52.23184 | 2.37094 | 22151 ft | 363 kts | 207° |
| 2026-05-04 19:14 | 52.20925 | 2.35276 | 22079 ft | 366 kts | 207° |
| 2026-05-04 19:14 | 52.18627 | 2.33427 | 22036 ft | 369 kts | 207° |
| 2026-05-04 19:14 | 52.16280 | 2.31540 | 22047 ft | 382 kts | 207° |
| 2026-05-04 19:14 | 52.13872 | 2.29608 | 22039 ft | 391 kts | 207° |
| 2026-05-04 19:15 | 52.11427 | 2.27652 | 22023 ft | 389 kts | 207° |
| 2026-05-04 19:15 | 52.09004 | 2.25715 | 22017 ft | 385 kts | 207° |
| 2026-05-04 19:15 | 52.06603 | 2.23800 | 22025 ft | 384 kts | 207° |
| 2026-05-04 19:15 | 52.04211 | 2.21894 | 22014 ft | 382 kts | 207° |
| 2026-05-04 19:16 | 52.01810 | 2.19981 | 22020 ft | 384 kts | 207° |
| 2026-05-04 19:16 | 51.99438 | 2.18093 | 22025 ft | 384 kts | 207° |
| 2026-05-04 19:16 | 51.97060 | 2.16140 | 22020 ft | 382 kts | 211° |
| 2026-05-04 19:16 | 51.94929 | 2.13625 | 21935 ft | 377 kts | 222° |
| 2026-05-04 19:17 | 51.93009 | 2.10758 | 21471 ft | 373 kts | 224° |
| 2026-05-04 19:17 | 51.91122 | 2.07881 | 20908 ft | 371 kts | 224° |
| 2026-05-04 19:17 | 51.89231 | 2.04996 | 20370 ft | 368 kts | 224° |
| 2026-05-04 19:17 | 51.87389 | 2.02203 | 19778 ft | 368 kts | 223° |
| 2026-05-04 19:18 | 51.85526 | 1.99396 | 19310 ft | 364 kts | 223° |
| 2026-05-04 19:18 | 51.83678 | 1.96628 | 18990 ft | 357 kts | 223° |
| 2026-05-04 19:18 | 51.81866 | 1.93925 | 18633 ft | 351 kts | 223° |
| 2026-05-04 19:18 | 51.80068 | 1.91250 | 18073 ft | 352 kts | 223° |
| 2026-05-04 19:19 | 51.78271 | 1.88582 | 17488 ft | 352 kts | 223° |
| 2026-05-04 19:19 | 51.76473 | 1.85917 | 16998 ft | 350 kts | 223° |
| 2026-05-04 19:19 | 51.74680 | 1.83263 | 16425 ft | 350 kts | 223° |
| 2026-05-04 19:19 | 51.72879 | 1.80599 | 15915 ft | 350 kts | 223° |
| 2026-05-04 19:20 | 51.71110 | 1.77987 | 15471 ft | 348 kts | 223° |
| 2026-05-04 19:20 | 51.69333 | 1.75365 | 15003 ft | 346 kts | 223° |
| 2026-05-04 19:20 | 51.67558 | 1.72749 | 14524 ft | 346 kts | 223° |
| 2026-05-04 19:20 | 51.65785 | 1.70139 | 14132 ft | 344 kts | 223° |
| 2026-05-04 19:21 | 51.64001 | 1.67515 | 14077 ft | 350 kts | 223° |
| 2026-05-04 19:21 | 51.62205 | 1.64877 | 14030 ft | 348 kts | 223° |
| 2026-05-04 19:21 | 51.60422 | 1.62261 | 14016 ft | 344 kts | 223° |
| 2026-05-04 19:21 | 51.58655 | 1.59671 | 14017 ft | 344 kts | 223° |
| 2026-05-04 19:22 | 51.56878 | 1.57069 | 14020 ft | 346 kts | 223° |
| 2026-05-04 19:22 | 51.55097 | 1.54464 | 14026 ft | 347 kts | 222° |
| 2026-05-04 19:22 | 51.53304 | 1.51844 | 14026 ft | 348 kts | 222° |
| 2026-05-04 19:22 | 51.51509 | 1.49224 | 14019 ft | 349 kts | 222° |
| 2026-05-04 19:23 | 51.49712 | 1.46604 | 14022 ft | 349 kts | 222° |
| 2026-05-04 19:23 | 51.47918 | 1.43989 | 14018 ft | 348 kts | 222° |
| 2026-05-04 19:23 | 51.46123 | 1.41379 | 14015 ft | 347 kts | 222° |
| 2026-05-04 19:23 | 51.44335 | 1.38783 | 14022 ft | 347 kts | 222° |
| 2026-05-04 19:24 | 51.42521 | 1.36251 | 14016 ft | 346 kts | 218° |
| 2026-05-04 19:24 | 51.40610 | 1.33914 | 14016 ft | 345 kts | 216° |
| 2026-05-04 19:24 | 51.38673 | 1.31660 | 14020 ft | 344 kts | 216° |
| 2026-05-04 19:24 | 51.36730 | 1.29419 | 14017 ft | 344 kts | 216° |
| 2026-05-04 19:25 | 51.34791 | 1.27174 | 14018 ft | 344 kts | 216° |
| 2026-05-04 19:25 | 51.33509 | 1.25681 | 14022 ft | 344 kts | 216° |
| 2026-05-04 19:25 | 51.30920 | 1.22651 | 14019 ft | 344 kts | 216° |
| 2026-05-04 19:25 | 51.28991 | 1.20387 | 14013 ft | 345 kts | 216° |
| 2026-05-04 19:26 | 51.27068 | 1.18125 | 14016 ft | 346 kts | 216° |
| 2026-05-04 19:26 | 51.25120 | 1.15836 | 14023 ft | 346 kts | 216° |
| 2026-05-04 19:26 | 51.23179 | 1.13555 | 14018 ft | 346 kts | 216° |
| 2026-05-04 19:26 | 51.21895 | 1.12047 | 14015 ft | 347 kts | 216° |
| 2026-05-04 19:27 | 51.19952 | 1.09767 | 13999 ft | 345 kts | 216° |
| 2026-05-04 19:27 | 51.17388 | 1.06762 | 13539 ft | 342 kts | 216° |
| 2026-05-04 19:27 | 51.16116 | 1.05272 | 13083 ft | 344 kts | 216° |
| 2026-05-04 19:27 | 51.14168 | 1.02993 | 12380 ft | 349 kts | 216° |
| 2026-05-04 19:28 | 51.12216 | 1.00711 | 11898 ft | 347 kts | 216° |
| 2026-05-04 19:28 | 51.09657 | 0.97724 | 11300 ft | 342 kts | 216° |
| 2026-05-04 19:28 | 51.08362 | 0.96216 | 11003 ft | 340 kts | 216° |
| 2026-05-04 19:28 | 51.06477 | 0.93969 | 10552 ft | 338 kts | 220° |
| 2026-05-04 19:29 | 51.05038 | 0.91072 | 10126 ft | 335 kts | 242° |
| 2026-05-04 19:29 | 51.04051 | 0.87785 | 9937 ft | 322 kts | 244° |
| 2026-05-04 19:29 | 51.03149 | 0.84666 | 9783 ft | 302 kts | 245° |
| 2026-05-04 19:29 | 51.02296 | 0.81727 | 9651 ft | 287 kts | 244° |
| 2026-05-04 19:30 | 51.01461 | 0.78886 | 9420 ft | 282 kts | 244° |
| 2026-05-04 19:30 | 51.00638 | 0.76111 | 9089 ft | 281 kts | 244° |
| 2026-05-04 19:30 | 50.99801 | 0.73311 | 8755 ft | 280 kts | 244° |
| 2026-05-04 19:30 | 50.98964 | 0.70519 | 8432 ft | 279 kts | 244° |
| 2026-05-04 19:31 | 50.98132 | 0.67749 | 8121 ft | 278 kts | 244° |
| 2026-05-04 19:31 | 50.97298 | 0.64976 | 8042 ft | 280 kts | 244° |
| 2026-05-04 19:31 | 50.96459 | 0.62191 | 8004 ft | 279 kts | 244° |
| 2026-05-04 19:31 | 50.95626 | 0.59429 | 7999 ft | 277 kts | 244° |
| 2026-05-04 19:32 | 50.94795 | 0.56671 | 8009 ft | 277 kts | 244° |
| 2026-05-04 19:32 | 50.93962 | 0.53913 | 8012 ft | 278 kts | 244° |
| 2026-05-04 19:32 | 50.93127 | 0.51152 | 8000 ft | 278 kts | 244° |
| 2026-05-04 19:32 | 50.92289 | 0.48390 | 8008 ft | 278 kts | 244° |
| 2026-05-04 19:33 | 50.91526 | 0.45579 | 7989 ft | 278 kts | 256° |
| 2026-05-04 19:33 | 50.91517 | 0.42558 | 8016 ft | 276 kts | 281° |
| 2026-05-04 19:33 | 50.92004 | 0.39620 | 8009 ft | 276 kts | 287° |
| 2026-05-04 19:33 | 50.92573 | 0.36721 | 8000 ft | 275 kts | 287° |
| 2026-05-04 19:34 | 50.93136 | 0.33815 | 8000 ft | 275 kts | 287° |
| 2026-05-04 19:34 | 50.93679 | 0.30924 | 7912 ft | 273 kts | 286° |
| 2026-05-04 19:34 | 50.94209 | 0.28054 | 7649 ft | 271 kts | 286° |
| 2026-05-04 19:34 | 50.94868 | 0.25260 | 7254 ft | 272 kts | 302° |
| 2026-05-04 19:35 | 50.96025 | 0.22952 | 6999 ft | 270 kts | 310° |
| 2026-05-04 19:35 | 50.97224 | 0.20666 | 6717 ft | 268 kts | 309° |
| 2026-05-04 19:35 | 50.98388 | 0.18362 | 6423 ft | 268 kts | 308° |
| 2026-05-04 19:35 | 50.99536 | 0.16045 | 6129 ft | 266 kts | 308° |
| 2026-05-04 19:36 | 51.00677 | 0.13726 | 5740 ft | 268 kts | 308° |
| 2026-05-04 19:36 | 51.01726 | 0.11268 | 5370 ft | 271 kts | 293° |
| 2026-05-04 19:36 | 51.02056 | 0.08331 | 5084 ft | 270 kts | 275° |
| 2026-05-04 19:36 | 51.02169 | 0.05353 | 4766 ft | 270 kts | 274° |
| 2026-05-04 19:37 | 51.02283 | 0.02376 | 4381 ft | 271 kts | 275° |
| 2026-05-04 19:37 | 51.02408 | -0.00602 | 4116 ft | 268 kts | 275° |
| 2026-05-04 19:37 | 51.02540 | -0.03551 | 3804 ft | 268 kts | 275° |
| 2026-05-04 19:37 | 51.02679 | -0.06501 | 3470 ft | 268 kts | 276° |
| 2026-05-04 19:38 | 51.02823 | -0.09458 | 3171 ft | 267 kts | 276° |
| 2026-05-04 19:38 | 51.02966 | -0.12362 | 3058 ft | 271 kts | 276° |
| 2026-05-04 19:38 | 51.03115 | -0.15361 | 3030 ft | 269 kts | 276° |
| 2026-05-04 19:38 | 51.03258 | -0.18254 | 3013 ft | 256 kts | 276° |
| 2026-05-04 19:39 | 51.03394 | -0.21008 | 2998 ft | 243 kts | 276° |
| 2026-05-04 19:39 | 51.03525 | -0.23634 | 3014 ft | 237 kts | 276° |
| 2026-05-04 19:39 | 51.03656 | -0.26242 | 3010 ft | 236 kts | 276° |
| 2026-05-04 19:39 | 51.03785 | -0.28838 | 3014 ft | 235 kts | 276° |
| 2026-05-04 19:40 | 51.03912 | -0.31425 | 3032 ft | 235 kts | 276° |
| 2026-05-04 19:40 | 51.04039 | -0.34012 | 3033 ft | 235 kts | 276° |
| 2026-05-04 19:40 | 51.04164 | -0.36594 | 3028 ft | 235 kts | 276° |
| 2026-05-04 19:40 | 51.04290 | -0.39174 | 3036 ft | 233 kts | 276° |
| 2026-05-04 19:41 | 51.04411 | -0.41693 | 3012 ft | 223 kts | 276° |
| 2026-05-04 19:41 | 51.04525 | -0.44092 | 3007 ft | 213 kts | 276° |
| 2026-05-04 19:41 | 51.04637 | -0.46428 | 3015 ft | 212 kts | 276° |
| 2026-05-04 19:41 | 51.04750 | -0.48774 | 3034 ft | 214 kts | 277° |
| 2026-05-04 19:42 | 51.05160 | -0.51033 | 3016 ft | 214 kts | 306° |
| 2026-05-04 19:42 | 51.06218 | -0.52616 | 3022 ft | 210 kts | 335° |
| 2026-05-04 19:42 | 51.07590 | -0.53182 | 3036 ft | 206 kts | 3° |
| 2026-05-04 19:42 | 51.08971 | -0.52678 | 3018 ft | 205 kts | 29° |
| 2026-05-04 19:43 | 51.10040 | -0.51225 | 3029 ft | 204 kts | 54° |
| 2026-05-04 19:43 | 51.10640 | -0.49189 | 3038 ft | 205 kts | 74° |
| 2026-05-04 19:43 | 51.11002 | -0.46990 | 3025 ft | 206 kts | 75° |
| 2026-05-04 19:43 | 51.11334 | -0.44761 | 3026 ft | 207 kts | 76° |
| 2026-05-04 19:44 | 51.11641 | -0.42516 | 2949 ft | 208 kts | 77° |
| 2026-05-04 19:44 | 51.11940 | -0.40280 | 2721 ft | 206 kts | 77° |
| 2026-05-04 19:44 | 51.12234 | -0.38084 | 2443 ft | 197 kts | 76° |
| 2026-05-04 19:44 | 51.12512 | -0.36018 | 2182 ft | 185 kts | 76° |
| 2026-05-04 19:45 | 51.12774 | -0.34078 | 1930 ft | 173 kts | 76° |
| 2026-05-04 19:45 | 51.13019 | -0.32264 | 1716 ft | 162 kts | 76° |
| 2026-05-04 19:45 | 51.13245 | -0.30594 | 1511 ft | 145 kts | 76° |
| 2026-05-04 19:45 | 51.13437 | -0.29135 | 1309 ft | 127 kts | 77° |
| 2026-05-04 19:46 | 51.13595 | -0.27787 | 1108 ft | 122 kts | 77° |
| 2026-05-04 19:46 | 51.13782 | -0.26446 | 920 ft | 126 kts | 76° |
| 2026-05-04 19:46 | 51.13964 | -0.25066 | 747 ft | 129 kts | 76° |
| 2026-05-04 19:46 | 51.14164 | -0.23674 | 587 ft | 132 kts | 76° |
| 2026-05-04 19:47 | 51.14364 | -0.22243 | 422 ft | 132 kts | 76° |
| 2026-05-04 19:47 | 51.14563 | -0.20818 | 270 ft | 132 kts | 76° |
| 2026-05-04 19:47 | 51.14748 | -0.19465 | 208 ft | 115 kts | 75° |
| 2026-05-04 19:47 | 51.14897 | -0.18419 | 205 ft | 75 kts | 78° |
| 2026-05-04 19:48 | 51.14976 | -0.17841 | 212 ft | 32 kts | 77° |
| 2026-05-04 19:48 | 51.15010 | -0.17596 | 203 ft | 22 kts | 77° |
| 2026-05-04 19:48 | 51.15054 | -0.17380 | 205 ft | 20 kts | 61° |
| 2026-05-04 19:48 | 51.15102 | -0.17247 | 208 ft | 12 kts | 54° |
| 2026-05-04 19:49 | 51.15146 | -0.17209 | 201 ft | 7 kts | 355° |
| 2026-05-04 19:49 | 51.15188 | -0.17248 | 205 ft | 8 kts | 325° |
| 2026-05-04 19:49 | 51.15206 | -0.17270 | 205 ft | 0 kts | 321° |
| 2026-05-04 19:51 | 51.15219 | -0.17286 | 214 ft | 8 kts | 323° |
| 2026-05-04 19:51 | 51.15258 | -0.17331 | 207 ft | 0 kts | 329° |
| 2026-05-04 19:57 | 51.15262 | -0.17334 | 212 ft | 3 kts | 332° |
| 2026-05-04 19:57 | 51.15307 | -0.17353 | 203 ft | 8 kts | 347° |
| 2026-05-04 19:58 | 51.15367 | -0.17375 | 208 ft | 9 kts | 347° |
| 2026-05-04 19:58 | 51.15409 | -0.17389 | 211 ft | 5 kts | 348° |
| 2026-05-04 19:58 | 51.15442 | -0.17400 | 206 ft | 5 kts | 348° |
| 2026-05-04 19:58 | 51.15473 | -0.17411 | 206 ft | 5 kts | 348° |
| 2026-05-04 19:59 | 51.15522 | -0.17427 | 204 ft | 11 kts | 348° |
| 2026-05-04 19:59 | 51.15590 | -0.17398 | 213 ft | 12 kts | 67° |
| 2026-05-04 19:59 | 51.15609 | -0.17271 | 208 ft | 12 kts | 77° |
| 2026-05-04 19:59 | 51.15622 | -0.17197 | 212 ft | 6 kts | 75° |
| 2026-05-04 20:00 | 51.15632 | -0.17137 | 203 ft | 6 kts | 77° |
| 2026-05-04 20:00 | 51.15637 | -0.17099 | 207 ft | 0 kts | 77° |
| 2026-05-04 20:02 | 51.15640 | -0.17078 | 203 ft | 8 kts | 78° |
| 2026-05-04 20:02 | 51.15656 | -0.16959 | 206 ft | 11 kts | 78° |
| 2026-05-04 20:02 | 51.15651 | -0.16929 | 202 ft | 5 kts | 136° |
| 2026-05-04 20:02 | 51.15603 | -0.16912 | 204 ft | 5 kts | 187° |
| 2026-05-04 20:03 | 51.15590 | -0.16907 | 204 ft | 2 kts | 165° |
| 2026-05-04 20:03 | 51.15587 | -0.16906 | 205 ft | 0 kts | 165° |